METAR Reports From Nearby Airports

 

KLUD - Decatur, Texas, USA
Distance from Wildwood: ESE 5mi, 8km
Updated: Jun 22, 2024 7:55pm
Clear
Clear
 Wind from calm
Wind: Calm
Temperature: 91°F , 33°C
Heat Index: 93°F , 34°C
Dew Point: 64°F , 18°C
Humidity: 41%
Barometer: 29.97 inHg , 1014.9 hPa
Clouds: Clear
Visibility: 7 miles , 11 km
2024/06/23 00:55 KLUD 230055Z AUTO 00000KT 7SM CLR 33/18 A2997 RMK AO2 T03320179
KXBP - Bridgeport, Texas, USA
Distance from Wildwood: WSW 11mi, 18km
Updated: Jun 22, 2024 7:55pm
Clear
Clear
 Wind from S
Wind: S 6 mph , 9 km/h
Temperature: 90°F , 32°C
Heat Index: 92°F , 33°C
Dew Point: 64°F , 18°C
Humidity: 43%
Barometer: 29.97 inHg , 1014.9 hPa
Clouds: Clear
Visibility: 10 miles , 16 km
2024/06/23 00:55 KXBP 230055Z AUTO 17005KT 10SM CLR 32/18 A2997 RMK AO2 T03160176
 
K0F2 - Bowie, Texas, USA
Distance from Wildwood: NNW 24mi, 39km
Updated: Jun 22, 2024 7:55pm
Clear
Clear
 Wind from S
Wind: S 5 mph , 7 km/h
Temperature: 90°F , 32°C
Heat Index: 94°F , 34°C
Dew Point: 68°F , 20°C
Humidity: 49%
Barometer: 29.96 inHg , 1014.6 hPa
Clouds: Clear
Visibility: 10 miles , 16 km
2024/06/23 00:55 K0F2 230055Z AUTO 18004KT 10SM CLR 32/20 A2996 RMK AO2 T03190201
KDTO - Denton, Texas, USA
Distance from Wildwood: E 27mi, 44km
Updated: Jun 22, 2024 7:53pm
Clear
Clear
 Wind from SSE
Wind: SSE 9 mph , 15 km/h
Temperature: 91°F , 33°C
Heat Index: 96°F , 36°C
Dew Point: 70°F , 21°C
Humidity: 49%
Barometer: 29.95 inHg , 1014.2 hPa
Clouds: Clear
Visibility: 10 miles , 16 km
2024/06/23 00:53 KDTO 230053Z 16008KT 10SM CLR 33/21 A2995 RMK AO2 SLP131 T03280206
 
KAFW - Ft Worth/Allianc, Texas, USA
Distance from Wildwood: SE 29mi, 46km
Updated: Jun 22, 2024 7:53pm
Few Clouds
Few Clouds
 Wind from S
Wind: S 9 mph , 15 km/h
Temperature: 91°F , 33°C
Heat Index: 93°F , 34°C
Dew Point: 64°F , 18°C
Humidity: 41%
Barometer: 29.94 inHg , 1013.9 hPa
Clouds: Few Clouds
Visibility: 10 miles , 16 km
Cloud details: Few Clouds 6000 ft
2024/06/23 00:53 KAFW 230053Z 19008KT 10SM FEW060 33/18 A2994 RMK AO2 SLP123 T03330183
KFTW - Fort Worth, Texas, USA
Distance from Wildwood: SSE 34mi, 55km
Updated: Jun 22, 2024 7:53pm
Clear
Clear
 Wind from S
Wind: S 10 mph , 17 km/h
Temperature: 90°F , 32°C
Heat Index: 92°F , 33°C
Dew Point: 64°F , 18°C
Humidity: 43%
Barometer: 29.94 inHg , 1013.9 hPa
Clouds: Clear
Visibility: 10 miles , 16 km
2024/06/23 00:53 KFTW 230053Z 18009KT 10SM CLR 32/18 A2994 RMK AO2 SLP128 T03220183
 
KNFW - Fort Worth Nas, Texas, USA
Distance from Wildwood: SSE 36mi, 58km
Updated: Jun 22, 2024 7:52pm
Clear
Clear
 Wind from SSE
Wind: SSE 10 mph , 17 km/h
Temperature: 91°F , 33°C
Heat Index: 93°F , 34°C
Dew Point: 64°F , 18°C
Humidity: 41%
Barometer: 29.95 inHg , 1014.2 hPa
Clouds: Clear
Visibility: 10 miles , 16 km
2024/06/23 00:52 KNFW 230052Z AUTO 16009KT 10SM CLR 33/18 A2995 RMK AO2 SLP125 T03280178 $
KGLE - Gainesville, Texas, USA
Distance from Wildwood: NE 38mi, 61km
Updated: Jun 22, 2024 7:55pm
Clear
Clear
 Wind from SSW
Wind: SSW 7 mph , 11 km/h
Temperature: 90°F , 32°C
Heat Index: 93°F , 34°C
Dew Point: 66°F , 19°C
Humidity: 46%
Barometer: 29.96 inHg , 1014.6 hPa
Clouds: Clear
Visibility: 10 miles , 16 km
2024/06/23 00:55 KGLE 230055Z AUTO 20006KT 10SM CLR 32/19 A2996 RMK AO2 T03210186 PWINO
 
KMWL - Mineral Wells, Texas, USA
Distance from Wildwood: SW 41mi, 65km
Updated: Jun 22, 2024 7:53pm
Clear
Clear
 Wind from S
Wind: S 6 mph , 9 km/h
Temperature: 90°F , 32°C
Heat Index: 93°F , 34°C
Dew Point: 66°F , 19°C
Humidity: 46%
Barometer: 29.95 inHg , 1014.2 hPa
Clouds: Clear
Visibility: 10 miles , 16 km
2024/06/23 00:53 KMWL 230053Z AUTO 17005KT 10SM CLR 32/19 A2995 RMK AO2 SLP126 T03220194
KDFW - Dallas/Ft Worth, Texas, USA
Distance from Wildwood: ESE 45mi, 73km
Updated: Jun 22, 2024 7:53pm
Few Clouds
Few Clouds
 Wind from SSW
Wind: SSW 12 mph , 19 km/h
Temperature: 91°F , 33°C
Heat Index: 94°F , 34°C
Dew Point: 66°F , 19°C
Humidity: 44%
Barometer: 29.94 inHg , 1013.9 hPa
Clouds: Few Clouds
Visibility: 10 miles , 16 km
Cloud details: Few Clouds 6500 ft
2024/06/23 00:53 KDFW 230053Z 21010KT 10SM FEW065 33/19 A2994 RMK AO2 SLP126 T03330189